Time;durP1;ratioP1;P1;durP2;ratioP2;P2;SDS_P1;SDS_P2;PMS_P1;PMS_P2;Temp;Humidity;BMP_temperature;BMP_pressure;BME280_temperature;BME280_humidity;BME280_pressure;Samples;Min_cycle;Max_cycle;Signal;HPM_P1;HPM_P2
2022/12/18 00:00:47;;;;;;;138.48;34.72;;;-2.30;99.90;;;;;;5021549;28;20051;-77
2022/12/18 00:03:14;;;;;;;134.52;32.58;;;-1.80;99.90;;;;;;5055065;28;20106;-77
2022/12/18 00:05:50;;;;;;;137.98;33.97;;;-1.30;99.90;;;;;;5054850;28;20352;-78
2022/12/18 00:08:17;;;;;;;122.70;31.00;;;-2.10;99.90;;;;;;5038246;28;20037;-78
2022/12/18 00:10:43;;;;;;;133.93;32.17;;;-2.40;99.90;;;;;;5037781;28;20040;-77
2022/12/18 00:13:08;;;;;;;145.82;32.47;;;-1.00;99.90;;;;;;5005283;28;20044;-77
2022/12/18 00:15:35;;;;;;;119.35;28.85;;;-1.60;99.90;;;;;;5021969;28;20136;-77
2022/12/18 00:18:01;;;;;;;98.70;26.90;;;-1.10;99.90;;;;;;5037035;28;20101;-77
2022/12/18 00:20:26;;;;;;;80.57;21.25;;;-2.40;99.90;;;;;;5004978;28;20131;-77
2022/12/18 00:22:53;;;;;;;125.75;31.70;;;-2.40;99.90;;;;;;5037419;28;20050;-77
2022/12/18 00:25:19;;;;;;;105.55;29.33;;;-1.50;99.90;;;;;;5037468;28;20053;-78
2022/12/18 00:27:45;;;;;;;123.47;30.63;;;-2.50;99.90;;;;;;5037527;28;20070;-78
2022/12/18 00:30:11;;;;;;;97.72;24.10;;;-2.10;99.90;;;;;;5037022;28;20123;-78
2022/12/18 00:32:37;;;;;;;109.65;26.58;;;-2.60;99.90;;;;;;5037795;28;20087;-77
2022/12/18 00:35:04;;;;;;;85.63;22.23;;;-2.60;99.90;;;;;;5037053;28;20080;-76
2022/12/18 00:37:29;;;;;;;99.32;25.85;;;-2.70;99.90;;;;;;5053882;28;20087;-77
2022/12/18 00:39:55;;;;;;;106.43;28.63;;;-1.40;99.90;;;;;;5037915;28;20076;-77
2022/12/18 00:45:06;;;;;;;110.15;27.70;;;-1.80;99.90;;;;;;5054393;28;20044;-77
2022/12/18 00:47:31;;;;;;;103.65;26.42;;;-2.80;99.90;;;;;;5021117;28;20167;-78
2022/12/18 00:49:57;;;;;;;112.18;27.25;;;-2.80;99.90;;;;;;5037279;28;20135;-77
2022/12/18 00:52:23;;;;;;;83.07;22.83;;;-2.80;99.90;;;;;;5037142;28;20464;-78
2022/12/18 00:54:48;;;;;;;99.35;26.15;;;-2.80;99.90;;;;;;5053295;28;20534;-78
2022/12/18 00:57:14;;;;;;;105.75;27.30;;;-2.80;99.90;;;;;;5036797;28;20041;-78
2022/12/18 00:59:40;;;;;;;94.57;24.67;;;-2.10;99.90;;;;;;5036782;28;20095;-77
2022/12/18 01:02:06;;;;;;;110.70;28.80;;;-2.90;99.90;;;;;;5036742;28;20060;-77
2022/12/18 01:04:32;;;;;;;125.70;28.27;;;-1.80;99.90;;;;;;5036971;28;20080;-78
2022/12/18 01:06:58;;;;;;;115.75;27.83;;;-1.80;99.90;;;;;;5053561;28;20098;-77
2022/12/18 01:09:24;;;;;;;114.57;29.15;;;-2.80;99.90;;;;;;5053286;28;20430;-77
2022/12/18 01:11:50;;;;;;;120.40;29.15;;;-1.90;99.90;;;;;;5053310;28;20037;-77
2022/12/18 01:14:16;;;;;;;121.00;27.98;;;-2.80;99.90;;;;;;5052884;28;20109;-77
2022/12/18 01:16:41;;;;;;;95.88;22.23;;;-2.80;99.90;;;;;;5036575;28;20048;-78
2022/12/18 01:19:07;;;;;;;128.98;30.65;;;-1.80;99.90;;;;;;5020481;28;20055;-78
2022/12/18 01:21:33;;;;;;;120.25;29.67;;;-1.90;99.90;;;;;;5036853;28;20467;-78
2022/12/18 01:23:59;;;;;;;131.23;30.17;;;-2.90;99.90;;;;;;5036276;28;20048;-78
2022/12/18 01:26:25;;;;;;;122.78;28.95;;;-1.70;99.90;;;;;;5053361;28;20045;-78
2022/12/18 01:28:51;;;;;;;128.45;28.70;;;-1.70;99.90;;;;;;5053362;28;20110;-78
2022/12/18 01:31:29;;;;;;;111.82;28.85;;;-2.90;99.90;;;;;;5052484;28;20036;-78
2022/12/18 01:33:56;;;;;;;108.05;27.25;;;-2.90;99.90;;;;;;5036203;28;20179;-78
2022/12/18 01:36:27;;;;;;;120.93;30.00;;;-2.90;99.90;;;;;;5036182;28;20044;-78
2022/12/18 01:38:53;;;;;;;80.18;22.92;;;-1.70;99.90;;;;;;5035943;28;20052;-77
2022/12/18 01:41:26;;;;;;;94.03;26.23;;;-3.00;99.90;;;;;;5035969;28;20135;-77
2022/12/18 01:43:57;;;;;;;119.00;26.95;;;-1.90;99.90;;;;;;5053002;28;20041;-78
2022/12/18 01:46:24;;;;;;;95.90;22.95;;;-3.00;99.90;;;;;;5035883;28;20078;-78
2022/12/18 01:48:57;;;;;;;105.57;28.85;;;-3.10;99.90;;;;;;5035746;28;20515;-77
2022/12/18 01:51:23;;;;;;;118.30;28.80;;;-1.90;99.90;;;;;;5052060;28;20047;-78
2022/12/18 01:53:49;;;;;;;119.47;29.95;;;-3.10;99.90;;;;;;5053027;28;20098;-77
2022/12/18 01:56:18;;;;;;;119.00;29.63;;;-2.20;99.90;;;;;;5052319;28;20049;-78
2022/12/18 01:58:56;;;;;;;120.65;30.35;;;-1.90;99.90;;;;;;5035976;28;20102;-78
2022/12/18 02:01:23;;;;;;;115.47;28.42;;;-3.10;99.90;;;;;;5052383;28;20041;-78
2022/12/18 02:03:49;;;;;;;110.57;28.42;;;-2.80;99.90;;;;;;5052617;28;20041;-78
2022/12/18 02:06:18;;;;;;;105.68;27.80;;;-2.50;99.90;;;;;;5052015;28;20063;-78
2022/12/18 02:09:01;;;;;;;114.03;28.90;;;-3.30;99.90;;;;;;5051920;28;20037;-77
2022/12/18 02:11:43;;;;;;;113.38;28.42;;;-3.30;99.90;;;;;;5035591;28;20184;-77
2022/12/18 02:14:33;;;;;;;106.95;30.20;;;-2.40;99.90;;;;;;5035578;28;20091;-77
2022/12/18 02:17:02;;;;;;;121.00;30.17;;;-3.40;99.90;;;;;;5052472;28;20072;-77
2022/12/18 02:20:03;;;;;;;112.38;27.92;;;-2.20;99.90;;;;;;5051952;28;20446;-78
2022/12/18 02:22:54;;;;;;;111.75;27.98;;;-3.50;99.90;;;;;;5036157;28;20040;-78
2022/12/18 02:25:53;;;;;;;107.40;29.27;;;-2.30;99.90;;;;;;5052303;28;20080;-77
2022/12/18 02:28:22;;;;;;;120.18;31.50;;;-3.70;99.90;;;;;;5052187;28;20047;-77
2022/12/18 02:30:50;;;;;;;120.13;30.80;;;-3.70;99.90;;;;;;5035755;28;20108;-78
2022/12/18 02:33:17;;;;;;;114.32;30.23;;;-3.80;99.90;;;;;;5052821;28;20106;-77
2022/12/18 02:35:45;;;;;;;118.93;30.15;;;-2.80;99.90;;;;;;5036239;28;20478;-77
2022/12/18 02:38:13;;;;;;;112.90;29.65;;;-3.80;99.90;;;;;;5052533;28;20447;-76
2022/12/18 02:40:40;;;;;;;117.65;31.63;;;-3.90;99.90;;;;;;5019635;28;20072;-77
2022/12/18 02:43:15;;;;;;;110.68;29.48;;;-2.80;99.90;;;;;;5036130;28;20076;-77
2022/12/18 02:45:56;;;;;;;118.63;28.75;;;-3.30;99.90;;;;;;5035535;28;20049;-78
2022/12/18 02:48:30;;;;;;;101.75;26.80;;;-4.00;99.90;;;;;;5052745;28;20061;-77
2022/12/18 02:51:39;;;;;;;113.22;28.38;;;-4.10;99.90;;;;;;5036266;28;20196;-78
2022/12/18 02:54:24;;;;;;;102.38;30.48;;;-4.00;99.90;;;;;;5027727;28;20045;-77
2022/12/18 02:56:54;;;;;;;104.47;29.48;;;-3.00;99.90;;;;;;5052287;28;20041;-77
2022/12/18 02:59:28;;;;;;;119.15;31.98;;;-3.90;99.90;;;;;;5052512;28;20045;-77
2022/12/18 03:02:06;;;;;;;109.75;30.42;;;-4.00;99.90;;;;;;5052748;28;20433;-77
2022/12/18 03:04:49;;;;;;;116.75;30.25;;;-4.10;99.90;;;;;;5035797;28;20048;-77
2022/12/18 03:07:49;;;;;;;115.43;31.98;;;-4.10;99.90;;;;;;5035238;28;20370;-77
2022/12/18 03:10:19;;;;;;;110.07;30.48;;;-4.10;99.90;;;;;;5022589;28;20045;-77
2022/12/18 03:12:52;;;;;;;106.25;30.50;;;-4.20;99.90;;;;;;5035710;28;20033;-77
2022/12/18 03:15:30;;;;;;;105.55;30.60;;;-4.30;99.90;;;;;;5036707;28;20044;-77
2022/12/18 03:18:10;;;;;;;113.75;30.00;;;-4.30;99.90;;;;;;5052919;28;20089;-77
2022/12/18 03:20:39;;;;;;;104.72;29.75;;;-4.20;99.90;;;;;;5056092;28;20491;-77
2022/12/18 03:23:20;;;;;;;114.88;29.95;;;-3.50;99.90;;;;;;5040357;28;20076;-77
2022/12/18 03:25:47;;;;;;;109.20;30.57;;;-4.40;99.90;;;;;;5057193;28;20064;-77
2022/12/18 03:28:16;;;;;;;116.85;32.58;;;-4.40;99.90;;;;;;5039522;28;20135;-77
2022/12/18 03:30:45;;;;;;;120.47;30.58;;;-4.30;99.90;;;;;;5055822;28;20083;-77
2022/12/18 03:33:20;;;;;;;113.95;31.65;;;-4.40;99.90;;;;;;5039357;28;20123;-77
2022/12/18 03:35:46;;;;;;;111.80;30.13;;;-4.40;99.90;;;;;;5039496;28;20045;-78
2022/12/18 03:38:12;;;;;;;116.88;30.50;;;-4.50;99.90;;;;;;5055783;28;20051;-77
2022/12/18 03:40:51;;;;;;;105.75;30.35;;;-4.40;99.90;;;;;;5039131;28;20041;-77
2022/12/18 03:43:43;;;;;;;110.90;28.88;;;-4.50;99.90;;;;;;5055277;28;20049;-77
2022/12/18 03:46:27;;;;;;;100.47;28.80;;;-4.60;99.90;;;;;;5038158;28;20056;-77
2022/12/18 03:49:01;;;;;;;103.45;28.85;;;-4.50;99.90;;;;;;5038709;28;20053;-78
2022/12/18 03:51:42;;;;;;;96.97;26.92;;;-4.50;99.90;;;;;;5038852;28;20041;-77
2022/12/18 03:54:10;;;;;;;97.15;26.83;;;-3.90;99.90;;;;;;5038702;28;20049;-77
2022/12/18 03:56:57;;;;;;;86.30;25.88;;;-4.60;99.90;;;;;;5055372;28;20041;-77
2022/12/18 03:59:25;;;;;;;78.40;25.67;;;-3.60;99.90;;;;;;5055025;28;20040;-77
2022/12/18 04:01:53;;;;;;;76.63;25.13;;;-4.60;99.90;;;;;;5038488;28;20044;-77
2022/12/18 04:04:19;;;;;;;80.70;25.42;;;-4.70;99.90;;;;;;5054872;28;20044;-77
2022/12/18 04:06:47;;;;;;;78.65;24.83;;;-4.70;99.90;;;;;;5054627;28;20036;-77
2022/12/18 04:09:14;;;;;;;70.05;24.02;;;-4.70;99.90;;;;;;5038165;28;20048;-78
2022/12/18 04:11:43;;;;;;;71.53;23.52;;;-3.90;99.90;;;;;;5037716;28;20481;-77
2022/12/18 04:14:09;;;;;;;70.63;22.73;;;-4.80;99.90;;;;;;5037861;28;20136;-78
2022/12/18 04:16:35;;;;;;;68.90;23.05;;;-4.80;99.90;;;;;;5037657;28;20475;-77
2022/12/18 04:19:01;;;;;;;65.47;22.55;;;-4.80;99.90;;;;;;5037831;28;20090;-76
2022/12/18 04:21:27;;;;;;;67.40;23.10;;;-4.80;99.90;;;;;;5053926;28;20080;-77
2022/12/18 04:23:52;;;;;;;76.18;23.88;;;-4.40;99.90;;;;;;5053687;28;20041;-78
2022/12/18 04:26:18;;;;;;;62.67;22.55;;;-4.90;99.90;;;;;;5054262;28;20045;-77
2022/12/18 04:28:44;;;;;;;70.03;22.15;;;-3.70;99.90;;;;;;5053969;28;20052;-77
2022/12/18 04:31:09;;;;;;;68.72;22.65;;;-4.90;99.90;;;;;;5053051;28;20037;-77
2022/12/18 04:33:35;;;;;;;68.05;21.75;;;-4.90;99.90;;;;;;5054167;28;20479;-77
2022/12/18 04:36:01;;;;;;;62.88;21.08;;;-4.50;99.90;;;;;;5054073;28;20045;-77
2022/12/18 04:38:27;;;;;;;68.25;22.35;;;-5.00;99.90;;;;;;5020477;28;20052;-77
2022/12/18 04:40:52;;;;;;;69.85;23.95;;;-5.10;99.90;;;;;;5037476;28;20049;-77
2022/12/18 04:43:18;;;;;;;76.95;24.95;;;-5.00;99.90;;;;;;5037792;28;20123;-78
2022/12/18 04:45:44;;;;;;;69.00;22.02;;;-5.10;99.90;;;;;;5020651;28;20041;-78
2022/12/18 04:48:09;;;;;;;67.68;21.33;;;-5.00;99.90;;;;;;5020403;28;20037;-78
2022/12/18 04:50:35;;;;;;;67.57;22.95;;;-5.10;99.90;;;;;;5037448;28;20107;-78
2022/12/18 04:53:01;;;;;;;68.25;22.08;;;-5.10;99.90;;;;;;5021105;28;20074;-78
2022/12/18 04:55:27;;;;;;;66.28;22.17;;;-5.20;99.90;;;;;;5020784;28;20048;-76
2022/12/18 04:57:53;;;;;;;67.60;20.95;;;-5.10;99.90;;;;;;4988497;28;20045;-77
2022/12/18 05:00:19;;;;;;;66.60;21.42;;;-5.10;99.90;;;;;;5020297;28;20433;-77
2022/12/18 05:02:45;;;;;;;70.53;22.80;;;-5.20;99.90;;;;;;5036889;28;20621;-77
2022/12/18 05:05:11;;;;;;;63.35;20.98;;;-5.20;99.90;;;;;;5037368;28;20131;-77
2022/12/18 05:07:37;;;;;;;65.60;22.10;;;-5.10;99.90;;;;;;5036826;28;20045;-77
2022/12/18 05:10:03;;;;;;;67.45;20.42;;;-4.20;99.90;;;;;;5036880;28;20048;-78
2022/12/18 05:12:31;;;;;;;71.10;22.25;;;-5.20;99.90;;;;;;5020436;28;20047;-77
2022/12/18 05:14:56;;;;;;;67.18;21.30;;;-5.20;99.90;;;;;;5036927;28;20080;-78
2022/12/18 05:17:22;;;;;;;61.05;20.92;;;-5.20;99.90;;;;;;5020605;28;20516;-77
2022/12/18 05:19:48;;;;;;;61.38;20.73;;;-4.40;99.90;;;;;;5003899;28;20048;-77
2022/12/18 05:22:13;;;;;;;65.90;21.35;;;-5.20;99.90;;;;;;5037037;28;20037;-77
2022/12/18 05:24:39;;;;;;;71.60;20.80;;;-5.30;99.90;;;;;;5020593;28;20084;-77
2022/12/18 05:27:05;;;;;;;61.53;20.15;;;-5.30;99.90;;;;;;5020973;28;20037;-78
2022/12/18 05:29:30;;;;;;;62.63;20.85;;;-5.30;99.90;;;;;;5037055;28;20041;-77
2022/12/18 05:31:56;;;;;;;57.70;20.00;;;-3.90;99.90;;;;;;5036444;28;20036;-77
2022/12/18 05:34:22;;;;;;;58.72;20.17;;;-5.00;99.90;;;;;;5020200;28;20037;-77
2022/12/18 05:36:48;;;;;;;64.38;20.95;;;-5.30;99.90;;;;;;5020571;28;20434;-77
2022/12/18 05:39:13;;;;;;;61.10;20.17;;;-4.50;99.90;;;;;;5020323;28;20041;-79
2022/12/18 05:41:39;;;;;;;48.45;18.00;;;-5.30;99.90;;;;;;5036689;28;20052;-77
2022/12/18 05:44:05;;;;;;;60.63;20.38;;;-5.30;99.90;;;;;;5020855;28;20167;-77
2022/12/18 05:46:31;;;;;;;61.92;18.67;;;-5.20;99.90;;;;;;5036733;28;20072;-79
2022/12/18 05:49:00;;;;;;;55.00;20.27;;;-5.20;99.90;;;;;;5039660;28;20096;-77
2022/12/18 05:51:27;;;;;;;50.80;17.00;;;-4.20;99.90;;;;;;5036496;28;20053;-78
2022/12/18 05:53:52;;;;;;;54.70;19.20;;;-5.30;99.90;;;;;;5053570;28;20047;-78
2022/12/18 05:56:21;;;;;;;49.50;18.17;;;-5.20;99.90;;;;;;5036895;28;20048;-77
2022/12/18 05:58:47;;;;;;;56.08;18.98;;;-4.20;99.90;;;;;;5036666;28;20429;-78
2022/12/18 06:01:20;;;;;;;51.22;19.35;;;-5.30;99.90;;;;;;5053446;28;20045;-77
2022/12/18 06:03:45;;;;;;;55.92;18.30;;;-5.20;99.90;;;;;;5036173;28;20483;-77
2022/12/18 06:06:15;;;;;;;57.85;19.35;;;-5.20;99.90;;;;;;5036941;28;20063;-77
2022/12/18 06:08:41;;;;;;;55.85;19.50;;;-5.20;99.90;;;;;;5052842;28;20080;-77
2022/12/18 06:11:07;;;;;;;47.58;17.95;;;-5.20;99.90;;;;;;5035846;28;20547;-78
2022/12/18 06:13:33;;;;;;;57.08;18.73;;;-5.30;99.90;;;;;;5003073;28;20108;-77
2022/12/18 06:16:02;;;;;;;58.97;18.52;;;-5.30;99.90;;;;;;5052404;28;20048;-77
2022/12/18 06:18:28;;;;;;;56.60;19.65;;;-5.30;99.90;;;;;;5036130;28;20076;-78
2022/12/18 06:20:57;;;;;;;56.50;20.05;;;-5.30;99.90;;;;;;5035599;28;20049;-77
2022/12/18 06:23:23;;;;;;;48.17;17.95;;;-5.40;99.90;;;;;;5036222;28;20128;-77
2022/12/18 06:25:49;;;;;;;48.95;18.23;;;-5.40;99.90;;;;;;5019623;28;20589;-77
2022/12/18 06:28:15;;;;;;;49.90;19.08;;;-4.70;99.90;;;;;;5036151;28;20049;-77
2022/12/18 06:30:44;;;;;;;53.88;18.40;;;-5.40;99.90;;;;;;5052201;28;20033;-76
2022/12/18 06:33:10;;;;;;;52.17;18.85;;;-5.40;99.90;;;;;;5052448;28;20064;-77
2022/12/18 06:35:35;;;;;;;53.88;17.38;;;-5.40;99.90;;;;;;5035751;28;20475;-78
2022/12/18 06:38:02;;;;;;;52.20;18.05;;;-5.50;99.90;;;;;;5052154;28;20048;-78
2022/12/18 06:40:28;;;;;;;46.85;18.45;;;-5.50;99.90;;;;;;5019396;28;20088;-77
2022/12/18 06:42:54;;;;;;;52.08;17.85;;;-5.50;99.90;;;;;;5019250;28;20045;-77
2022/12/18 06:45:19;;;;;;;51.53;17.50;;;-5.60;99.90;;;;;;5036113;28;20088;-77
2022/12/18 06:47:46;;;;;;;57.85;18.80;;;-5.60;99.90;;;;;;5035456;28;20049;-77
2022/12/18 06:50:12;;;;;;;48.75;18.05;;;-5.60;99.90;;;;;;5035512;28;20132;-77
2022/12/18 06:52:40;;;;;;;50.80;18.65;;;-5.70;99.90;;;;;;5052039;28;20110;-78
2022/12/18 06:55:11;;;;;;;47.88;17.83;;;-5.70;99.90;;;;;;5039748;28;20128;-77
2022/12/18 06:57:37;;;;;;;46.83;17.45;;;-5.70;99.90;;;;;;5039421;28;20040;-78
2022/12/18 07:00:05;;;;;;;51.88;17.40;;;-4.70;99.90;;;;;;5039573;28;20048;-78
2022/12/18 07:02:30;;;;;;;49.60;18.15;;;-5.70;99.90;;;;;;5039477;28;20045;-77
2022/12/18 07:04:56;;;;;;;47.55;16.48;;;-5.70;99.90;;;;;;5056305;28;20087;-77
2022/12/18 07:07:22;;;;;;;48.28;18.30;;;-5.80;99.90;;;;;;5056500;28;20387;-77
2022/12/18 07:09:49;;;;;;;42.92;15.98;;;-5.80;99.90;;;;;;5039249;28;20076;-77
2022/12/18 07:12:15;;;;;;;47.10;17.90;;;-6.40;99.90;;;;;;5055860;28;20127;-78
2022/12/18 07:14:41;;;;;;;46.25;17.60;;;-5.80;99.90;;;;;;5055732;28;20538;-78
2022/12/18 07:17:07;;;;;;;39.72;15.88;;;-5.80;99.90;;;;;;5055177;28;20049;-78
2022/12/18 07:19:33;;;;;;;43.22;17.02;;;-5.80;99.90;;;;;;5022625;28;20048;-78
2022/12/18 07:21:59;;;;;;;47.30;16.60;;;-4.70;99.90;;;;;;5038991;28;20380;-78
2022/12/18 07:24:24;;;;;;;39.17;16.15;;;-5.80;99.90;;;;;;5056166;28;20053;-77
2022/12/18 07:26:50;;;;;;;44.22;17.52;;;-5.70;99.90;;;;;;5055765;28;20041;-77
2022/12/18 07:29:16;;;;;;;47.13;17.23;;;-4.60;99.90;;;;;;5055888;28;20057;-77
2022/12/18 07:31:42;;;;;;;45.05;16.40;;;-5.70;99.90;;;;;;5055695;28;20468;-78
2022/12/18 07:34:15;;;;;;;49.08;17.52;;;-5.40;99.90;;;;;;5055679;28;20052;-78
2022/12/18 07:36:41;;;;;;;43.85;16.63;;;-5.70;99.90;;;;;;5055712;28;20127;-81
2022/12/18 07:39:07;;;;;;;42.50;17.13;;;-5.70;99.90;;;;;;5055908;28;20055;-77
2022/12/18 07:41:33;;;;;;;45.03;17.40;;;-4.60;99.90;;;;;;5039254;28;20048;-77
2022/12/18 07:43:58;;;;;;;42.10;15.60;;;-5.70;99.90;;;;;;5038546;28;20057;-78
2022/12/18 07:46:24;;;;;;;45.17;16.15;;;-5.70;99.90;;;;;;5055736;28;20049;-77
2022/12/18 07:48:50;;;;;;;40.17;16.58;;;-5.70;99.90;;;;;;5038497;28;20049;-76
2022/12/18 07:51:16;;;;;;;39.55;15.80;;;-5.70;99.90;;;;;;5038459;28;20052;-77
2022/12/18 07:53:42;;;;;;;43.30;16.70;;;-5.70;99.90;;;;;;5022784;28;20122;-77
2022/12/18 07:56:10;;;;;;;40.00;15.30;;;-5.60;99.90;;;;;;5038804;28;20135;-77
2022/12/18 07:58:36;;;;;;;41.00;15.90;;;-4.40;99.90;;;;;;5055805;28;20403;-77
2022/12/18 08:01:04;;;;;;;39.78;15.77;;;-5.60;99.90;;;;;;5022704;28;20047;-77
2022/12/18 08:03:30;;;;;;;39.55;15.52;;;-5.60;99.90;;;;;;5055462;28;20376;-77
2022/12/18 08:06:00;;;;;;;40.17;16.02;;;-5.50;99.90;;;;;;5037277;28;20044;-77
2022/12/18 08:08:25;;;;;;;36.63;14.93;;;-5.30;99.90;;;;;;5006587;28;20483;-78
2022/12/18 08:10:51;;;;;;;37.10;15.27;;;-5.40;99.90;;;;;;5038814;28;20071;-78
2022/12/18 08:13:17;;;;;;;36.33;13.23;;;-5.30;99.90;;;;;;5054812;28;20055;-78
2022/12/18 08:15:42;;;;;;;38.13;15.50;;;-5.20;99.90;;;;;;5055072;28;20555;-78
2022/12/18 08:18:08;;;;;;;36.38;15.18;;;-5.10;99.90;;;;;;5005724;28;20391;-78
2022/12/18 08:20:34;;;;;;;38.97;15.27;;;-3.80;99.90;;;;;;5054968;28;20053;-78
2022/12/18 08:23:00;;;;;;;35.58;14.60;;;-4.90;99.90;;;;;;5038644;28;20095;-78
2022/12/18 08:25:25;;;;;;;36.92;14.57;;;-4.90;99.90;;;;;;5055062;28;20044;-78
2022/12/18 08:27:51;;;;;;;36.40;14.93;;;-4.90;99.90;;;;;;5022242;28;20487;-78
2022/12/18 08:30:17;;;;;;;38.00;15.38;;;-4.80;99.90;;;;;;5038666;28;20479;-77
2022/12/18 08:32:42;;;;;;;38.58;15.43;;;-4.80;99.90;;;;;;5055752;28;20055;-76
2022/12/18 08:35:08;;;;;;;37.28;14.43;;;-3.80;99.90;;;;;;5022260;28;20387;-77
2022/12/18 08:37:34;;;;;;;37.15;14.93;;;-4.70;99.90;;;;;;5038779;28;20053;-77
2022/12/18 08:40:00;;;;;;;37.15;13.77;;;-4.70;99.90;;;;;;5054715;28;20045;-77
2022/12/18 08:45:10;;;;;;;34.05;14.18;;;-4.50;99.90;;;;;;5054263;28;20088;-78
2022/12/18 08:47:36;;;;;;;34.42;14.70;;;-4.50;99.90;;;;;;5005742;28;20048;-78
2022/12/18 08:50:01;;;;;;;36.65;13.95;;;-4.60;99.90;;;;;;5037661;28;20057;-78
2022/12/18 08:52:28;;;;;;;35.88;13.55;;;-4.50;99.90;;;;;;5021294;28;20049;-78
2022/12/18 08:54:53;;;;;;;30.70;13.65;;;-4.40;99.90;;;;;;5021884;28;20091;-78
2022/12/18 08:57:19;;;;;;;33.10;14.32;;;-4.40;99.90;;;;;;5038186;28;20080;-78
2022/12/18 08:59:45;;;;;;;31.77;13.93;;;-4.40;99.90;;;;;;5021180;28;20109;-79
2022/12/18 09:02:11;;;;;;;35.63;14.82;;;-3.20;99.90;;;;;;5037902;28;20049;-78
2022/12/18 09:04:36;;;;;;;30.42;13.68;;;-3.70;99.90;;;;;;5021044;28;20055;-76
2022/12/18 09:07:02;;;;;;;28.75;13.25;;;-4.20;99.90;;;;;;5053955;28;20041;-76
2022/12/18 09:09:28;;;;;;;31.40;13.52;;;-3.10;99.90;;;;;;5020613;28;20098;-76
2022/12/18 09:11:54;;;;;;;33.33;14.25;;;-2.90;99.90;;;;;;5020804;28;20048;-77
2022/12/18 09:14:19;;;;;;;29.45;12.98;;;-3.60;99.90;;;;;;5053791;28;20053;-77
2022/12/18 09:16:45;;;;;;;29.38;13.00;;;-4.00;99.90;;;;;;5020890;28;20487;-78
2022/12/18 09:19:11;;;;;;;32.80;14.02;;;-3.90;99.90;;;;;;5037315;28;20044;-77
2022/12/18 09:21:38;;;;;;;30.80;13.80;;;-2.80;99.90;;;;;;5037649;28;20103;-78
2022/12/18 09:24:04;;;;;;;29.55;13.73;;;-3.80;99.90;;;;;;5036902;28;20135;-78
2022/12/18 09:26:30;;;;;;;30.00;13.75;;;-3.70;99.90;;;;;;5037507;28;20045;-78
2022/12/18 09:28:56;;;;;;;27.70;13.43;;;-3.60;99.90;;;;;;5053236;28;20041;-78
2022/12/18 09:31:24;;;;;;;30.45;13.32;;;-3.40;99.90;;;;;;5053330;28;20041;-78
2022/12/18 09:33:50;;;;;;;26.60;12.75;;;-3.40;99.90;;;;;;5053814;28;20493;-78
2022/12/18 09:36:17;;;;;;;23.58;12.18;;;-2.50;99.90;;;;;;5036899;28;20135;-77
2022/12/18 09:38:43;;;;;;;26.38;11.63;;;-2.10;99.90;;;;;;5053788;28;20399;-77
2022/12/18 09:41:22;;;;;;;29.15;12.07;;;-3.10;99.90;;;;;;5036363;28;20139;-77
2022/12/18 09:43:57;;;;;;;24.58;11.27;;;-2.90;99.90;;;;;;5053748;28;20055;-76
2022/12/18 09:46:35;;;;;;;23.10;10.43;;;-2.80;99.90;;;;;;5053324;28;20049;-77
2022/12/18 09:49:06;;;;;;;25.23;11.18;;;-2.70;99.90;;;;;;5053110;28;20053;-77
2022/12/18 09:51:53;;;;;;;27.27;11.18;;;-2.50;99.90;;;;;;5035835;28;20045;-76
2022/12/18 09:54:44;;;;;;;18.27;8.98;;;-2.50;99.90;;;;;;5052911;28;20055;-76
2022/12/18 09:57:18;;;;;;;18.13;9.80;;;-2.50;99.90;;;;;;5035260;28;20062;-75
2022/12/18 09:59:50;;;;;;;20.98;9.90;;;-2.40;99.90;;;;;;5053228;28;20445;-76
2022/12/18 10:02:21;;;;;;;20.05;9.40;;;-2.50;99.90;;;;;;5035894;28;20054;-76
2022/12/18 10:05:11;;;;;;;19.52;9.15;;;-1.20;99.90;;;;;;5036391;28;20127;-76
2022/12/18 10:08:01;;;;;;;20.00;8.75;;;-2.40;99.90;;;;;;5052785;28;20071;-76
2022/12/18 10:10:34;;;;;;;16.08;8.85;;;-2.40;99.90;;;;;;5035755;28;20041;-76
2022/12/18 10:13:07;;;;;;;17.45;8.30;;;-2.40;99.90;;;;;;5052389;28;20106;-76
2022/12/18 10:15:49;;;;;;;14.13;7.85;;;-2.40;99.90;;;;;;5052591;28;20045;-76
2022/12/18 10:18:38;;;;;;;18.02;8.32;;;-2.40;99.90;;;;;;5052142;28;20048;-75
2022/12/18 10:21:14;;;;;;;15.60;8.50;;;-2.30;99.90;;;;;;5038946;28;20118;-76
2022/12/18 10:23:42;;;;;;;19.42;8.75;;;-2.10;99.90;;;;;;5035808;28;20053;-77
2022/12/18 10:26:12;;;;;;;17.40;8.00;;;-1.90;99.90;;;;;;5051773;28;20053;-75
2022/12/18 10:28:40;;;;;;;17.75;8.68;;;-0.80;99.90;;;;;;5018542;28;20049;-75
2022/12/18 10:31:21;;;;;;;15.60;7.55;;;-1.50;99.90;;;;;;5034850;28;20049;-76
2022/12/18 10:33:47;;;;;;;17.70;8.05;;;-0.70;99.90;;;;;;5051750;28;20056;-76
2022/12/18 10:36:13;;;;;;;14.68;8.10;;;-0.60;99.90;;;;;;5018465;28;20045;-75
2022/12/18 10:38:39;;;;;;;14.68;7.57;;;-0.90;99.90;;;;;;5051638;28;20135;-75
2022/12/18 10:41:08;;;;;;;16.08;7.53;;;-0.70;99.90;;;;;;5051705;28;20131;-75
2022/12/18 10:43:36;;;;;;;13.98;7.38;;;-0.60;99.90;;;;;;5035122;28;20490;-76
2022/12/18 10:46:05;;;;;;;15.18;7.07;;;-0.20;99.90;;;;;;5051624;28;20052;-75
2022/12/18 10:48:34;;;;;;;12.73;6.88;;;-0.10;99.90;;;;;;5050992;28;20514;-75
2022/12/18 10:51:00;;;;;;;12.75;6.80;;;-0.30;99.90;;;;;;5034933;28;20041;-75
2022/12/18 10:53:29;;;;;;;13.98;6.68;;;-0.20;99.90;;;;;;5018355;28;20483;-74
2022/12/18 10:55:58;;;;;;;13.30;7.07;;;-0.70;99.90;;;;;;5018418;28;20059;-74
2022/12/18 10:58:36;;;;;;;15.55;6.85;;;0.40;99.90;;;;;;5017962;28;20052;-76
2022/12/18 11:01:17;;;;;;;13.95;7.32;;;-0.80;99.90;;;;;;5034959;28;20049;-74
2022/12/18 11:04:00;;;;;;;12.50;6.80;;;-0.10;99.90;;;;;;5018177;28;20152;-73
2022/12/18 11:06:26;;;;;;;12.30;5.90;;;-0.70;99.90;;;;;;5034767;28;20079;-74
2022/12/18 11:09:04;;;;;;;14.88;6.43;;;-0.90;99.90;;;;;;5018343;28;20045;-75
2022/12/18 11:11:31;;;;;;;13.27;6.53;;;-0.90;99.90;;;;;;5018102;28;20051;-75
2022/12/18 11:13:57;;;;;;;13.55;6.72;;;-0.90;99.90;;;;;;5018114;28;20398;-75
2022/12/18 11:16:23;;;;;;;11.25;6.50;;;-0.90;99.90;;;;;;5017876;28;20128;-75
2022/12/18 11:18:49;;;;;;;13.35;6.63;;;-0.90;99.90;;;;;;5034825;28;20098;-75
2022/12/18 11:21:16;;;;;;;12.35;6.32;;;-0.80;99.90;;;;;;5001568;28;20041;-74
2022/12/18 11:23:51;;;;;;;13.02;6.82;;;-0.80;99.90;;;;;;5034577;28;20040;-75
2022/12/18 11:26:17;;;;;;;12.63;6.53;;;-0.80;99.90;;;;;;5034422;28;20044;-75
2022/12/18 11:28:51;;;;;;;13.40;6.05;;;-0.20;99.90;;;;;;5034362;28;20052;-74
2022/12/18 11:31:28;;;;;;;11.30;6.28;;;0.00;99.90;;;;;;5033980;28;20044;-75
2022/12/18 11:34:29;;;;;;;14.48;7.07;;;-0.70;99.90;;;;;;5018075;28;20135;-75
2022/12/18 11:36:54;;;;;;;12.35;6.35;;;-0.70;99.90;;;;;;5018000;28;20048;-75
2022/12/18 11:39:57;;;;;;;12.10;6.60;;;-0.10;99.90;;;;;;5034608;28;20099;-74
2022/12/18 11:42:44;;;;;;;12.48;6.70;;;-0.70;99.90;;;;;;5021435;28;20109;-75
2022/12/18 11:45:13;;;;;;;12.60;6.45;;;-0.70;99.90;;;;;;5038128;28;20057;-75
2022/12/18 11:47:57;;;;;;;13.00;6.47;;;0.10;99.90;;;;;;5037664;28;20041;-75
2022/12/18 11:50:42;;;;;;;12.55;5.82;;;-0.70;99.90;;;;;;5033053;28;20135;-75
2022/12/18 11:53:12;;;;;;;12.13;6.05;;;-0.60;99.90;;;;;;5038099;28;20056;-75
2022/12/18 11:55:53;;;;;;;13.77;6.13;;;-0.60;99.90;;;;;;5021091;28;20467;-75
2022/12/18 11:58:43;;;;;;;11.68;6.10;;;-0.30;99.90;;;;;;5054163;28;20079;-75
2022/12/18 12:01:27;;;;;;;13.10;6.35;;;-0.50;99.90;;;;;;5037751;28;20063;-75
2022/12/18 12:04:01;;;;;;;12.63;6.05;;;-0.50;99.90;;;;;;5037399;28;20399;-76
2022/12/18 12:06:58;;;;;;;11.98;6.10;;;-0.50;99.90;;;;;;5037387;28;20056;-76
2022/12/18 12:09:45;;;;;;;12.23;6.50;;;-0.50;99.90;;;;;;5053905;28;20049;-76
2022/12/18 12:12:45;;;;;;;11.70;5.72;;;-0.50;99.90;;;;;;5037181;28;20546;-76
2022/12/18 12:15:27;;;;;;;10.38;4.93;;;-0.50;99.90;;;;;;5037374;28;20102;-76
2022/12/18 12:18:01;;;;;;;;;;;-0.40;99.90;;;;;;5054451;28;20080;-76
2022/12/18 12:20:53;;;;;;;12.40;6.45;;;-0.50;99.90;;;;;;5053934;28;19979;-76
2022/12/18 12:23:50;;;;;;;12.90;5.78;;;-0.40;99.90;;;;;;5053937;28;20056;-75
2022/12/18 12:26:56;;;;;;;11.20;6.53;;;-0.30;99.90;;;;;;5053927;28;20507;-75
2022/12/18 12:29:37;;;;;;;13.80;6.68;;;-0.20;99.90;;;;;;5036842;28;20045;-75
2022/12/18 12:32:32;;;;;;;12.68;6.82;;;-0.20;99.90;;;;;;5036982;28;20458;-75
2022/12/18 12:35:14;;;;;;;15.00;6.40;;;-0.20;99.90;;;;;;4991198;28;20092;-75
2022/12/18 12:38:07;;;;;;;11.82;6.30;;;-0.20;99.90;;;;;;5053584;28;20045;-75
2022/12/18 12:40:39;;;;;;;11.60;5.95;;;-0.20;99.90;;;;;;5053084;28;20080;-75
2022/12/18 12:43:23;;;;;;;9.93;5.90;;;-0.20;99.90;;;;;;5053510;28;20041;-76
2022/12/18 12:45:52;;;;;;;10.88;5.88;;;0.70;99.90;;;;;;5053302;28;20429;-76
2022/12/18 12:48:23;;;;;;;11.07;5.85;;;-0.10;99.90;;;;;;5053622;28;20063;-76
2022/12/18 12:50:50;;;;;;;10.20;5.93;;;-0.10;99.90;;;;;;5052337;28;20056;-76